Roach, Missouri
Current Conditions -  °F | °C
As of 12:55 PM on Friday 24 Oct 2014 (Local Time) from KH21 Reporting Station
Overcast Overcast  
Wind Chill: 68°   Ceiling: 4700
Heat Index: 68°   Visibility: 10mi
Dew Point: 55°   Wind: 5mph
Humidity: 64%   Direction: 180°S
Pressure: 30.1"   Gusts: NA
Location:  37.99°N, 92.84°W
Report Text: KH21 241755Z AUTO 18004KT 10SM OVC047 20/13 A3010 RMK AO2
Loading
Personal Weather Stations






























Interactive Weather Map
Tropical Storm Tracking
New forecast layout! Learn more

10-Day Weather Forecast

Advertisements
Track Severe Weather on mobile